createdAt,value
2018-12-21T00:00:06.677Z,86.97
2018-12-21T00:02:35.736Z,83.63
2018-12-21T00:05:04.814Z,85.97
2018-12-21T00:07:33.908Z,86.60
2018-12-21T00:10:02.980Z,89.17
2018-12-21T00:12:32.046Z,91.23
2018-12-21T00:15:01.152Z,79.60
2018-12-21T00:17:34.489Z,84.67
2018-12-21T00:19:59.292Z,80.60
2018-12-21T00:22:28.434Z,79.27
2018-12-21T00:24:57.512Z,79.97
2018-12-21T00:27:26.595Z,80.27
2018-12-21T00:29:55.718Z,75.03
2018-12-21T00:32:30.388Z,84.03
2018-12-21T00:35:05.114Z,75.43
2018-12-21T00:37:39.670Z,84.33
2018-12-21T00:40:14.264Z,76.50
2018-12-21T00:42:46.140Z,82.53
2018-12-21T00:45:15.244Z,80.80
2018-12-21T00:47:44.311Z,78.83
2018-12-21T00:50:13.374Z,80.10
2018-12-21T00:52:42.467Z,81.70
2018-12-21T00:55:11.543Z,90.17
2018-12-21T00:57:40.608Z,91.67
2018-12-21T01:00:09.725Z,87.60
2018-12-21T01:02:38.829Z,76.00
2018-12-21T01:05:07.895Z,72.87
2018-12-21T01:07:36.972Z,71.47
2018-12-21T01:10:06.050Z,73.73
2018-12-21T01:12:35.117Z,75.23
2018-12-21T01:15:04.196Z,78.53
2018-12-21T01:17:36.936Z,81.47
2018-12-21T01:20:06.083Z,80.43
2018-12-21T01:22:35.146Z,83.70
2018-12-21T01:25:04.219Z,83.50
2018-12-21T01:27:33.317Z,83.60
2018-12-21T01:30:02.397Z,83.13
2018-12-21T01:32:31.474Z,92.17
2018-12-21T01:35:00.634Z,81.33
2018-12-21T01:37:29.703Z,79.37
2018-12-21T01:39:58.776Z,80.77
2018-12-21T01:42:27.895Z,85.50
2018-12-21T01:44:56.967Z,87.47
2018-12-21T01:47:26.036Z,83.73
2018-12-21T01:49:55.136Z,80.17
2018-12-21T01:52:24.220Z,80.70
2018-12-21T01:54:53.293Z,79.27
2018-12-21T01:57:22.390Z,88.73
2018-12-21T01:59:51.480Z,92.57
2018-12-21T02:02:20.548Z,87.90
2018-12-21T02:04:49.647Z,87.47
2018-12-21T02:07:18.751Z,93.03
2018-12-21T02:09:47.826Z,83.03
2018-12-21T02:12:16.937Z,83.37
2018-12-21T02:14:46.000Z,83.27
2018-12-21T02:17:15.073Z,80.93
2018-12-21T02:19:44.375Z,79.43
2018-12-21T02:22:13.449Z,80.73
2018-12-21T02:24:42.526Z,83.27
2018-12-21T02:27:11.697Z,76.70
2018-12-21T02:29:40.824Z,80.27
2018-12-21T02:32:09.956Z,82.17
2018-12-21T02:34:39.056Z,79.27
2018-12-21T02:37:08.122Z,79.13
2018-12-21T02:39:37.181Z,85.03
2018-12-21T02:42:06.368Z,82.33
2018-12-21T02:44:35.446Z,87.47
2018-12-21T02:47:04.525Z,80.67
2018-12-21T02:49:33.702Z,79.23
2018-12-21T02:52:05.768Z,75.70
2018-12-21T02:54:31.930Z,73.90
2018-12-21T02:57:01.215Z,81.47
2018-12-21T02:59:30.371Z,81.80
2018-12-21T03:01:59.571Z,86.13
2018-12-21T03:04:28.703Z,89.00
2018-12-21T03:06:57.774Z,84.53
2018-12-21T03:09:26.848Z,84.10
2018-12-21T03:11:55.972Z,80.13
2018-12-21T03:14:25.052Z,86.13
2018-12-21T03:16:54.242Z,83.23
2018-12-21T03:19:23.368Z,85.97
2018-12-21T03:21:52.452Z,83.87
2018-12-21T03:24:21.544Z,104.80
2018-12-21T03:26:50.641Z,105.67
2018-12-21T03:29:19.709Z,97.20
2018-12-21T03:31:48.837Z,108.93
2018-12-21T03:34:17.938Z,106.10
2018-12-21T03:36:47.023Z,108.43
2018-12-21T03:39:16.096Z,100.27
2018-12-21T03:41:45.195Z,94.40
2018-12-21T03:44:14.263Z,95.33
2018-12-21T03:46:43.341Z,93.37
2018-12-21T03:49:12.433Z,91.53
2018-12-21T03:51:41.502Z,88.57
2018-12-21T03:54:10.658Z,86.60
2018-12-21T03:56:39.909Z,91.53
2018-12-21T03:59:09.039Z,85.50
2018-12-21T04:01:38.103Z,82.03
2018-12-21T04:04:07.200Z,85.43
2018-12-21T04:06:36.267Z,84.10
2018-12-21T04:09:05.341Z,82.13
2018-12-21T04:11:34.489Z,82.83
2018-12-21T04:14:03.634Z,86.87
2018-12-21T04:16:32.752Z,84.07
2018-12-21T04:19:01.898Z,79.77
2018-12-21T04:21:30.957Z,79.40
2018-12-21T04:24:00.034Z,82.50
2018-12-21T04:26:29.133Z,79.50
2018-12-21T04:28:58.197Z,85.60
2018-12-21T04:31:27.267Z,88.70
2018-12-21T04:33:56.368Z,94.10
2018-12-21T04:36:25.437Z,94.03
2018-12-21T04:38:54.527Z,122.83
2018-12-21T04:41:23.672Z,126.00
2018-12-21T04:43:52.753Z,108.90
2018-12-21T04:46:21.830Z,88.07
2018-12-21T04:48:50.929Z,80.30
2018-12-21T04:51:20.001Z,78.67
2018-12-21T04:53:49.087Z,82.43
2018-12-21T04:56:18.233Z,85.30
2018-12-21T04:58:47.307Z,92.00
2018-12-21T05:01:16.377Z,87.93
2018-12-21T05:03:45.498Z,86.13
2018-12-21T05:06:14.557Z,84.07
2018-12-21T05:08:43.622Z,86.27
2018-12-21T05:11:12.734Z,88.20
2018-12-21T05:13:41.796Z,91.60
2018-12-21T05:16:10.864Z,95.43
2018-12-21T05:18:39.968Z,97.67
2018-12-21T05:21:09.046Z,101.97
2018-12-21T05:23:38.123Z,103.73
2018-12-21T05:26:07.240Z,101.77
2018-12-21T05:28:36.305Z,99.77
2018-12-21T05:31:05.382Z,97.03
2018-12-21T05:33:34.481Z,92.60
2018-12-21T05:36:03.545Z,96.40
2018-12-21T05:38:32.617Z,94.23
2018-12-21T05:41:01.721Z,95.83
2018-12-21T05:43:30.803Z,119.53
2018-12-21T05:46:00.875Z,126.13
2018-12-21T05:48:30.009Z,131.13
2018-12-21T05:50:59.087Z,132.23
2018-12-21T05:53:28.166Z,137.07
2018-12-21T05:55:57.266Z,128.23
2018-12-21T05:58:26.454Z,126.63
2018-12-21T06:00:55.423Z,115.17
2018-12-21T06:03:24.527Z,110.97
2018-12-21T06:05:53.601Z,112.07
2018-12-21T06:08:22.685Z,111.73
2018-12-21T06:10:51.814Z,112.77
2018-12-21T06:13:20.880Z,129.77
2018-12-21T06:15:49.969Z,124.17
2018-12-21T06:18:19.086Z,123.20
2018-12-21T06:20:48.156Z,112.10
2018-12-21T06:23:17.235Z,110.40
2018-12-21T06:25:46.354Z,125.20
2018-12-21T06:28:15.439Z,122.17
2018-12-21T06:30:44.521Z,119.77
2018-12-21T06:33:13.821Z,117.67
2018-12-21T06:35:43.309Z,108.03
2018-12-21T06:38:12.381Z,95.23
2018-12-21T06:40:41.489Z,94.43
2018-12-21T06:43:10.565Z,101.53
2018-12-21T06:45:39.643Z,103.17
2018-12-21T06:48:08.755Z,99.43
2018-12-21T06:50:37.841Z,113.50
2018-12-21T06:53:06.916Z,97.77
2018-12-21T06:55:36.044Z,90.07
2018-12-21T06:58:05.121Z,84.30
2018-12-21T07:00:34.191Z,77.20
2018-12-21T07:03:03.290Z,79.00
2018-12-21T07:05:32.383Z,78.33
2018-12-21T07:08:01.453Z,76.60
2018-12-21T07:10:30.553Z,81.60
2018-12-21T07:12:59.623Z,85.53
2018-12-21T07:15:28.697Z,86.43
2018-12-21T07:17:57.817Z,101.23
2018-12-21T07:20:27.008Z,96.07
2018-12-21T07:22:56.400Z,96.27
2018-12-21T07:25:25.538Z,105.97
2018-12-21T07:27:54.628Z,108.10
2018-12-21T07:30:23.704Z,95.97
2018-12-21T07:32:52.807Z,108.60
2018-12-21T07:35:21.905Z,109.87
2018-12-21T07:37:50.981Z,110.40
2018-12-21T07:40:20.289Z,127.87
2018-12-21T07:42:49.369Z,126.20
2018-12-21T07:45:18.453Z,124.83
2018-12-21T07:47:47.567Z,156.67
2018-12-21T07:50:16.656Z,142.90
2018-12-21T07:52:45.748Z,110.63
2018-12-21T07:55:14.850Z,103.17
2018-12-21T07:57:43.936Z,94.80
2018-12-21T08:00:13.287Z,96.50
2018-12-21T08:02:42.493Z,112.17
2018-12-21T08:05:11.581Z,126.03
2018-12-21T08:07:40.658Z,113.07
2018-12-21T08:10:09.774Z,96.57
2018-12-21T08:12:38.843Z,89.37
2018-12-21T08:15:07.916Z,79.83
2018-12-21T08:17:37.006Z,83.67
2018-12-21T08:20:06.074Z,83.73
2018-12-21T08:22:35.148Z,82.67
2018-12-21T08:25:04.273Z,78.20
2018-12-21T08:27:48.045Z,88.70
2018-12-21T08:30:17.161Z,83.77
2018-12-21T08:32:46.227Z,84.83
2018-12-21T08:35:15.287Z,78.20
2018-12-21T08:37:44.749Z,74.97
2018-12-21T08:40:13.817Z,69.43
2018-12-21T08:42:42.893Z,66.00
2018-12-21T08:45:12.011Z,70.17
2018-12-21T08:47:41.078Z,68.00
2018-12-21T08:50:10.145Z,112.77
2018-12-21T08:52:39.240Z,114.30
2018-12-21T08:55:08.321Z,124.10
2018-12-21T08:57:37.386Z,121.90
2018-12-21T09:03:03.127Z,114.87
2018-12-21T09:05:32.321Z,111.30
2018-12-21T09:08:01.405Z,124.73
2018-12-21T09:10:30.481Z,132.73
2018-12-21T09:12:59.592Z,110.53
2018-12-21T09:15:28.681Z,148.93
2018-12-21T09:17:57.757Z,132.17
2018-12-21T09:20:26.869Z,122.17
2018-12-21T09:22:55.951Z,117.33
2018-12-21T09:25:25.051Z,115.47
2018-12-21T09:27:54.142Z,126.00
2018-12-21T09:30:23.232Z,111.93
2018-12-21T09:32:52.288Z,94.17
2018-12-21T09:35:21.536Z,151.77
2018-12-21T09:37:50.626Z,185.80
2018-12-21T09:40:19.706Z,148.00
2018-12-21T09:42:48.808Z,125.20
2018-12-21T09:45:17.878Z,95.83
2018-12-21T09:47:46.938Z,86.83
2018-12-21T09:50:16.032Z,85.97
2018-12-21T09:52:45.100Z,85.60
2018-12-21T09:55:14.162Z,91.07
2018-12-21T09:57:43.295Z,132.77
2018-12-21T10:00:12.366Z,136.37
2018-12-21T10:02:41.443Z,101.20
2018-12-21T10:05:10.560Z,116.47
2018-12-21T10:07:39.631Z,216.37
2018-12-21T10:10:08.714Z,209.60
2018-12-21T10:12:37.820Z,154.13
2018-12-21T10:15:06.920Z,144.23
2018-12-21T10:17:35.994Z,151.50
2018-12-21T10:20:05.533Z,186.67
2018-12-21T10:22:34.629Z,133.27
2018-12-21T10:25:04.042Z,103.73
2018-12-21T10:27:33.151Z,116.97
2018-12-21T10:30:02.224Z,103.57
2018-12-21T10:32:31.293Z,92.20
2018-12-21T10:35:00.412Z,105.40
2018-12-21T10:37:29.483Z,104.00
2018-12-21T10:39:58.555Z,105.37
2018-12-21T10:42:27.686Z,101.40
2018-12-21T10:44:56.758Z,93.27
2018-12-21T10:47:25.826Z,98.80
2018-12-21T10:49:54.924Z,97.23
2018-12-21T10:52:23.997Z,103.63
2018-12-21T10:54:53.067Z,99.63
2018-12-21T10:57:22.169Z,95.73
2018-12-21T10:59:51.229Z,94.23
2018-12-21T11:02:20.295Z,94.10
2018-12-21T11:04:49.448Z,113.50
2018-12-21T11:07:18.532Z,124.13
2018-12-21T11:09:47.606Z,121.87
2018-12-21T11:12:16.708Z,122.13
2018-12-21T11:14:45.784Z,122.57
2018-12-21T11:17:14.870Z,111.73
2018-12-21T11:19:43.963Z,113.27
2018-12-21T11:22:13.052Z,109.37
2018-12-21T11:24:42.139Z,105.90
2018-12-21T11:27:11.256Z,97.33
2018-12-21T11:29:40.329Z,104.87
2018-12-21T11:32:09.393Z,103.03
2018-12-21T11:34:38.503Z,103.00
2018-12-21T11:37:07.566Z,96.03
2018-12-21T11:39:36.633Z,89.63
2018-12-21T11:42:05.728Z,93.10
2018-12-21T11:44:34.802Z,98.43
2018-12-21T11:47:03.883Z,130.97
2018-12-21T11:49:33.011Z,105.90
2018-12-21T11:52:02.086Z,95.80
2018-12-21T11:54:31.150Z,94.53
2018-12-21T11:57:00.252Z,103.93
2018-12-21T11:59:29.440Z,103.83
2018-12-21T12:01:58.398Z,101.20
2018-12-21T12:04:27.483Z,102.33
2018-12-21T12:06:58.496Z,101.53
2018-12-21T12:09:27.568Z,105.50
2018-12-21T12:11:57.099Z,105.07
2018-12-21T12:14:26.171Z,99.50
2018-12-21T12:16:55.238Z,105.20
2018-12-21T12:19:24.347Z,102.57
2018-12-21T12:21:53.422Z,113.17
2018-12-21T12:24:22.507Z,113.93
2018-12-21T12:26:57.319Z,120.60
2018-12-21T12:29:26.400Z,122.20
2018-12-21T12:31:55.467Z,132.23
2018-12-21T12:34:24.570Z,127.40
2018-12-21T12:36:53.663Z,129.00
2018-12-21T12:39:22.742Z,139.13
2018-12-21T12:41:51.848Z,147.13
2018-12-21T12:44:20.925Z,168.53
2018-12-21T12:46:50.008Z,165.77
2018-12-21T12:49:19.109Z,163.07
2018-12-21T12:51:48.194Z,170.77
2018-12-21T12:54:17.271Z,163.93
2018-12-21T12:56:46.388Z,164.13
2018-12-21T12:59:15.465Z,179.73
2018-12-21T13:01:44.546Z,174.10
2018-12-21T13:04:13.639Z,212.13
2018-12-21T13:06:42.717Z,263.37
2018-12-21T13:09:11.776Z,260.30
2018-12-21T13:11:40.876Z,346.53
2018-12-21T13:14:09.967Z,219.43
2018-12-21T13:16:57.843Z,158.93
2018-12-21T13:19:26.928Z,152.23
2018-12-21T13:21:56.000Z,172.47
2018-12-21T13:24:25.106Z,165.93
2018-12-21T13:26:54.178Z,165.17
2018-12-21T13:29:23.292Z,275.07
2018-12-21T13:31:52.398Z,251.97
2018-12-21T13:34:21.483Z,262.60
2018-12-21T13:36:50.565Z,279.17
2018-12-21T13:39:19.724Z,312.07
2018-12-21T13:41:48.790Z,210.53
2018-12-21T13:44:17.871Z,193.90
2018-12-21T13:46:47.335Z,210.47
2018-12-21T13:49:16.426Z,169.20
2018-12-21T13:51:45.505Z,137.00
2018-12-21T13:54:14.610Z,139.97
2018-12-21T13:56:43.733Z,140.37
2018-12-21T13:59:12.813Z,113.87
2018-12-21T14:01:41.926Z,140.57
2018-12-21T14:04:11.025Z,225.43
2018-12-21T14:06:40.116Z,176.87
2018-12-21T14:09:09.221Z,162.63
2018-12-21T14:11:38.309Z,180.20
2018-12-21T14:14:07.398Z,187.97
2018-12-21T14:16:36.785Z,174.53
2018-12-21T14:19:05.869Z,131.80
2018-12-21T14:21:34.949Z,145.30
2018-12-21T14:24:04.074Z,114.10
2018-12-21T14:26:33.154Z,124.80
2018-12-21T14:29:02.235Z,112.47
2018-12-21T14:31:31.334Z,99.83
2018-12-21T14:34:00.407Z,105.07
2018-12-21T14:36:29.476Z,96.50
2018-12-21T14:38:58.573Z,117.50
2018-12-21T14:41:27.654Z,126.73
2018-12-21T14:43:56.728Z,131.27
2018-12-21T14:46:25.862Z,129.43
2018-12-21T14:48:54.941Z,130.83
2018-12-21T14:51:24.015Z,128.87
2018-12-21T14:53:53.116Z,197.50
2018-12-21T14:56:22.194Z,354.43
2018-12-21T14:58:51.274Z,370.57
2018-12-21T15:01:20.378Z,298.90
2018-12-21T15:03:49.450Z,275.50
2018-12-21T15:06:18.536Z,303.30
2018-12-21T15:08:47.648Z,384.60
2018-12-21T15:11:16.733Z,380.37
2018-12-21T15:13:45.814Z,321.67
2018-12-21T15:16:15.139Z,229.13
2018-12-21T15:18:44.236Z,206.13
2018-12-21T15:21:13.311Z,353.77
2018-12-21T15:23:42.411Z,461.60
2018-12-21T15:26:11.495Z,403.57
2018-12-21T15:28:40.571Z,299.50
2018-12-21T15:31:10.167Z,238.77
2018-12-21T15:33:39.241Z,170.77
2018-12-21T15:36:08.316Z,167.00
2018-12-21T15:38:37.424Z,139.37
2018-12-21T15:41:06.487Z,90.43
2018-12-21T15:43:35.566Z,90.40
2018-12-21T15:46:04.678Z,86.70
2018-12-21T15:48:33.774Z,78.53
2018-12-21T15:51:02.856Z,77.27
2018-12-21T15:53:31.977Z,91.90
2018-12-21T15:56:01.049Z,65.93
2018-12-21T15:58:30.103Z,42.30
2018-12-21T16:00:59.201Z,46.83
2018-12-21T16:03:28.277Z,46.03
2018-12-21T16:05:57.338Z,48.40
2018-12-21T16:08:26.444Z,46.73
2018-12-21T16:10:55.503Z,52.53
2018-12-21T16:13:24.588Z,109.20
2018-12-21T16:15:53.728Z,123.00
2018-12-21T16:18:22.811Z,162.43
2018-12-21T16:20:51.888Z,356.03
2018-12-21T16:23:21.000Z,197.83
2018-12-21T16:25:50.086Z,124.37
2018-12-21T16:28:19.159Z,180.97
2018-12-21T16:30:48.280Z,153.10
2018-12-21T16:33:17.351Z,161.03
2018-12-21T16:35:46.424Z,176.10
2018-12-21T16:38:16.029Z,179.60
2018-12-21T16:40:44.931Z,172.57
2018-12-21T16:43:14.008Z,128.53
2018-12-21T16:45:43.113Z,251.60
2018-12-21T16:48:12.183Z,124.43
2018-12-21T16:50:41.344Z,113.57
2018-12-21T16:53:10.366Z,92.47
2018-12-21T16:55:39.449Z,95.37
2018-12-21T16:58:08.517Z,78.93
2018-12-21T17:00:37.644Z,71.67
2018-12-21T17:03:15.382Z,85.27
2018-12-21T17:05:35.769Z,46.30
2018-12-21T17:08:04.863Z,44.17
2018-12-21T17:10:33.931Z,38.40
2018-12-21T17:13:03.022Z,45.13
2018-12-21T17:15:32.100Z,47.60
2018-12-21T17:18:01.154Z,41.03
2018-12-21T17:20:30.222Z,42.83
2018-12-21T17:23:00.732Z,56.67
2018-12-21T17:25:28.406Z,58.37
2018-12-21T17:27:57.479Z,66.30
2018-12-21T17:30:26.585Z,60.67
2018-12-21T17:32:55.668Z,65.30
2018-12-21T17:35:24.887Z,48.93
2018-12-21T17:37:53.997Z,47.97
2018-12-21T17:40:23.061Z,48.63
2018-12-21T17:42:52.124Z,46.77
2018-12-21T17:45:21.336Z,51.77
2018-12-21T17:47:50.400Z,51.87
2018-12-21T17:50:19.460Z,45.33
2018-12-21T17:52:48.554Z,53.47
2018-12-21T17:55:17.611Z,41.37
2018-12-21T17:57:46.673Z,64.30
2018-12-21T18:00:15.778Z,50.73
2018-12-21T18:02:44.847Z,59.40
2018-12-21T18:05:13.917Z,62.17
2018-12-21T18:07:43.059Z,71.13
2018-12-21T18:10:12.125Z,81.87
2018-12-21T18:12:41.203Z,87.83
2018-12-21T18:15:10.310Z,73.17
2018-12-21T18:17:57.384Z,85.53
2018-12-21T18:20:26.473Z,80.53
2018-12-21T18:22:55.533Z,82.77
2018-12-21T18:25:24.601Z,73.40
2018-12-21T18:27:53.752Z,87.07
2018-12-21T18:30:22.815Z,79.57
2018-12-21T18:32:51.892Z,76.00
2018-12-21T18:35:21.003Z,97.87
2018-12-21T18:37:50.066Z,70.47
2018-12-21T18:40:19.154Z,59.77
2018-12-21T18:42:48.504Z,63.27
2018-12-21T18:45:17.570Z,58.80
2018-12-21T18:47:46.650Z,70.67
2018-12-21T18:50:15.758Z,88.53
2018-12-21T18:52:44.837Z,107.47
2018-12-21T18:55:13.919Z,91.20
2018-12-21T18:57:43.012Z,95.87
2018-12-21T19:00:12.086Z,86.00
2018-12-21T19:02:41.155Z,79.53
2018-12-21T19:05:10.285Z,86.93
2018-12-21T19:07:39.362Z,93.10
2018-12-21T19:10:08.447Z,83.07
2018-12-21T19:12:37.580Z,67.03
2018-12-21T19:15:06.638Z,67.43
2018-12-21T19:17:35.715Z,74.73
2018-12-21T19:20:05.961Z,70.17
2018-12-21T19:22:33.887Z,73.83
2018-12-21T19:25:02.965Z,71.97
2018-12-21T19:27:32.068Z,73.77
2018-12-21T19:30:01.133Z,80.03
2018-12-21T19:32:30.209Z,76.93
2018-12-21T19:34:59.408Z,65.30
2018-12-21T19:37:28.781Z,73.27
2018-12-21T19:39:59.488Z,67.37
2018-12-21T19:42:27.042Z,61.40
2018-12-21T19:44:56.108Z,75.00
2018-12-21T19:47:26.191Z,89.23
2018-12-21T19:49:55.317Z,68.87
2018-12-21T19:52:24.390Z,94.47
2018-12-21T19:54:53.460Z,83.93
2018-12-21T19:57:43.489Z,80.83
2018-12-21T20:00:12.560Z,82.70
2018-12-21T20:02:41.626Z,59.57
2018-12-21T20:05:10.810Z,72.03
2018-12-21T20:07:39.877Z,95.43
2018-12-21T20:10:08.954Z,111.17
2018-12-21T20:12:38.071Z,73.37
2018-12-21T20:15:07.135Z,76.43
2018-12-21T20:17:36.213Z,71.17
2018-12-21T20:20:05.384Z,66.37
2018-12-21T20:22:34.458Z,65.90
2018-12-21T20:25:03.537Z,67.43
2018-12-21T20:27:32.638Z,60.80
2018-12-21T20:30:01.704Z,59.77
2018-12-21T20:32:30.779Z,65.97
2018-12-21T20:34:59.875Z,60.57
2018-12-21T20:37:28.949Z,65.00
2018-12-21T20:39:58.028Z,85.67
2018-12-21T20:42:27.172Z,64.40
2018-12-21T20:44:56.239Z,64.33
2018-12-21T20:47:44.323Z,67.70
2018-12-21T20:50:13.385Z,74.13
2018-12-21T20:52:42.466Z,73.10
2018-12-21T20:55:11.548Z,74.13
2018-12-21T20:57:40.627Z,70.67
2018-12-21T21:00:10.657Z,73.37
2018-12-21T21:02:39.785Z,76.63
2018-12-21T21:05:08.859Z,79.87
2018-12-21T21:07:37.927Z,68.27
2018-12-21T21:10:07.951Z,75.87
2018-12-21T21:12:37.022Z,66.80
2018-12-21T21:15:07.016Z,67.40
2018-12-21T21:17:36.110Z,67.33
2018-12-21T21:20:06.119Z,64.53
2018-12-21T21:22:35.184Z,69.40
2018-12-21T21:25:04.336Z,67.37
2018-12-21T21:27:33.402Z,66.87
2018-12-21T21:30:02.483Z,57.17
2018-12-21T21:32:31.569Z,58.53
2018-12-21T21:35:00.634Z,54.43
2018-12-21T21:37:29.709Z,53.27
2018-12-21T21:39:59.021Z,56.50
2018-12-21T21:42:28.089Z,62.60
2018-12-21T21:44:57.148Z,58.00
2018-12-21T21:47:26.250Z,57.87
2018-12-21T21:49:55.320Z,57.07
2018-12-21T21:52:24.403Z,56.13
2018-12-21T21:54:53.590Z,61.43
2018-12-21T21:57:22.656Z,63.20
2018-12-21T21:59:51.719Z,63.67
2018-12-21T22:02:20.819Z,62.73
2018-12-21T22:04:49.885Z,57.17
2018-12-21T22:07:19.056Z,52.40
2018-12-21T22:09:48.580Z,57.40
2018-12-21T22:12:17.654Z,66.70
2018-12-21T22:14:46.722Z,60.30
2018-12-21T22:17:15.819Z,65.73
2018-12-21T22:19:44.887Z,57.20
2018-12-21T22:22:13.959Z,61.63
2018-12-21T22:24:43.140Z,69.03
2018-12-21T22:27:12.207Z,61.20
2018-12-21T22:29:41.284Z,61.47
2018-12-21T22:32:10.476Z,63.33
2018-12-21T22:34:39.543Z,65.23
2018-12-21T22:37:10.574Z,69.40
2018-12-21T22:39:39.673Z,63.33
2018-12-21T22:42:08.733Z,59.17
2018-12-21T22:44:37.805Z,59.97
2018-12-21T22:47:06.901Z,58.53
2018-12-21T22:49:35.966Z,69.97
2018-12-21T22:52:05.036Z,59.13
2018-12-21T22:54:34.137Z,57.40
2018-12-21T22:57:03.201Z,55.60
2018-12-21T22:59:32.264Z,54.40
2018-12-21T23:02:01.358Z,48.50
2018-12-21T23:04:30.419Z,51.83
2018-12-21T23:06:59.493Z,56.73
2018-12-21T23:09:28.599Z,55.93
2018-12-21T23:11:57.675Z,58.87
2018-12-21T23:14:26.747Z,57.97
2018-12-21T23:16:59.552Z,56.83
2018-12-21T23:19:28.619Z,61.93
2018-12-21T23:21:57.681Z,63.27
2018-12-21T23:24:26.774Z,54.00
2018-12-21T23:26:55.844Z,57.47
2018-12-21T23:29:24.908Z,56.93
2018-12-21T23:31:54.004Z,58.90
2018-12-21T23:34:23.074Z,59.97
2018-12-21T23:36:52.142Z,55.50
2018-12-21T23:39:21.258Z,55.20
2018-12-21T23:41:50.456Z,60.87
2018-12-21T23:44:19.518Z,52.70
2018-12-21T23:46:48.644Z,62.67
2018-12-21T23:49:17.705Z,73.10
2018-12-21T23:51:46.780Z,63.63
2018-12-21T23:54:15.918Z,59.50
2018-12-21T23:56:44.951Z,60.27
2018-12-21T23:59:14.021Z,59.33
